sensor_id;sensor_type;location;lat;lon;timestamp;P1;durP1;ratioP1;P2;durP2;ratioP2
42104;SDS011;70664;51.472;5.712;2023-12-04T00:01:20;3.97;;;2.85;;
42104;SDS011;70664;51.472;5.712;2023-12-04T00:03:47;4.93;;;2.88;;
42104;SDS011;70664;51.472;5.712;2023-12-04T00:06:13;5.68;;;3.35;;
42104;SDS011;70664;51.472;5.712;2023-12-04T00:08:39;4.40;;;2.92;;
42104;SDS011;70664;51.472;5.712;2023-12-04T00:11:05;5.97;;;2.92;;
42104;SDS011;70664;51.472;5.712;2023-12-04T00:13:32;3.83;;;2.97;;
42104;SDS011;70664;51.472;5.712;2023-12-04T00:15:58;4.25;;;2.95;;
42104;SDS011;70664;51.472;5.712;2023-12-04T00:18:24;7.88;;;3.22;;
42104;SDS011;70664;51.472;5.712;2023-12-04T00:20:50;5.53;;;3.22;;
42104;SDS011;70664;51.472;5.712;2023-12-04T00:23:17;4.25;;;3.00;;
42104;SDS011;70664;51.472;5.712;2023-12-04T00:25:42;4.00;;;2.92;;
42104;SDS011;70664;51.472;5.712;2023-12-04T00:28:08;6.55;;;2.95;;
42104;SDS011;70664;51.472;5.712;2023-12-04T00:30:34;3.90;;;2.65;;
42104;SDS011;70664;51.472;5.712;2023-12-04T00:33:00;3.08;;;2.53;;
42104;SDS011;70664;51.472;5.712;2023-12-04T00:35:26;4.60;;;2.83;;
42104;SDS011;70664;51.472;5.712;2023-12-04T00:37:51;4.05;;;3.15;;
42104;SDS011;70664;51.472;5.712;2023-12-04T00:40:17;3.78;;;2.78;;
42104;SDS011;70664;51.472;5.712;2023-12-04T00:42:43;3.88;;;2.60;;
42104;SDS011;70664;51.472;5.712;2023-12-04T00:45:09;4.32;;;3.00;;
42104;SDS011;70664;51.472;5.712;2023-12-04T00:47:35;3.92;;;3.00;;
42104;SDS011;70664;51.472;5.712;2023-12-04T00:50:00;5.45;;;2.90;;
42104;SDS011;70664;51.472;5.712;2023-12-04T00:52:26;4.35;;;3.03;;
42104;SDS011;70664;51.472;5.712;2023-12-04T00:54:52;3.92;;;2.75;;
42104;SDS011;70664;51.472;5.712;2023-12-04T00:57:18;4.03;;;3.00;;
42104;SDS011;70664;51.472;5.712;2023-12-04T00:59:44;3.50;;;3.20;;
42104;SDS011;70664;51.472;5.712;2023-12-04T01:02:10;4.75;;;3.08;;
42104;SDS011;70664;51.472;5.712;2023-12-04T01:04:35;4.25;;;3.20;;
42104;SDS011;70664;51.472;5.712;2023-12-04T01:07:06;3.85;;;2.70;;
42104;SDS011;70664;51.472;5.712;2023-12-04T01:09:35;3.88;;;2.72;;
42104;SDS011;70664;51.472;5.712;2023-12-04T01:12:02;3.28;;;2.88;;
42104;SDS011;70664;51.472;5.712;2023-12-04T01:14:28;4.22;;;3.00;;
42104;SDS011;70664;51.472;5.712;2023-12-04T01:16:55;5.00;;;3.10;;
42104;SDS011;70664;51.472;5.712;2023-12-04T01:19:21;4.25;;;2.97;;
42104;SDS011;70664;51.472;5.712;2023-12-04T01:21:47;3.42;;;2.75;;
42104;SDS011;70664;51.472;5.712;2023-12-04T01:24:13;4.88;;;2.90;;
42104;SDS011;70664;51.472;5.712;2023-12-04T01:26:40;4.20;;;2.90;;
42104;SDS011;70664;51.472;5.712;2023-12-04T01:29:06;3.85;;;3.10;;
42104;SDS011;70664;51.472;5.712;2023-12-04T01:31:32;3.97;;;2.88;;
42104;SDS011;70664;51.472;5.712;2023-12-04T01:33:58;4.18;;;3.28;;
42104;SDS011;70664;51.472;5.712;2023-12-04T01:36:24;3.20;;;2.88;;
42104;SDS011;70664;51.472;5.712;2023-12-04T01:38:50;4.03;;;2.85;;
42104;SDS011;70664;51.472;5.712;2023-12-04T01:41:15;3.22;;;2.70;;
42104;SDS011;70664;51.472;5.712;2023-12-04T01:43:41;3.78;;;3.00;;
42104;SDS011;70664;51.472;5.712;2023-12-04T01:46:07;5.10;;;2.95;;
42104;SDS011;70664;51.472;5.712;2023-12-04T01:48:34;6.28;;;3.20;;
42104;SDS011;70664;51.472;5.712;2023-12-04T01:51:02;3.85;;;3.05;;
42104;SDS011;70664;51.472;5.712;2023-12-04T01:53:32;4.20;;;2.90;;
42104;SDS011;70664;51.472;5.712;2023-12-04T01:56:00;4.57;;;2.67;;
42104;SDS011;70664;51.472;5.712;2023-12-04T01:58:26;3.38;;;2.90;;
42104;SDS011;70664;51.472;5.712;2023-12-04T02:00:51;4.65;;;2.97;;
42104;SDS011;70664;51.472;5.712;2023-12-04T02:03:17;3.72;;;2.85;;
42104;SDS011;70664;51.472;5.712;2023-12-04T02:05:44;4.80;;;3.20;;
42104;SDS011;70664;51.472;5.712;2023-12-04T02:08:10;4.03;;;3.10;;
42104;SDS011;70664;51.472;5.712;2023-12-04T02:10:36;3.10;;;2.80;;
42104;SDS011;70664;51.472;5.712;2023-12-04T02:13:03;3.63;;;2.70;;
42104;SDS011;70664;51.472;5.712;2023-12-04T02:15:29;3.25;;;2.83;;
42104;SDS011;70664;51.472;5.712;2023-12-04T02:17:55;4.20;;;3.00;;
42104;SDS011;70664;51.472;5.712;2023-12-04T02:20:24;4.53;;;3.03;;
42104;SDS011;70664;51.472;5.712;2023-12-04T02:23:03;3.72;;;2.97;;
42104;SDS011;70664;51.472;5.712;2023-12-04T02:25:31;3.20;;;2.90;;
42104;SDS011;70664;51.472;5.712;2023-12-04T02:28:01;4.97;;;3.00;;
42104;SDS011;70664;51.472;5.712;2023-12-04T02:30:36;3.17;;;2.88;;
42104;SDS011;70664;51.472;5.712;2023-12-04T02:33:03;3.10;;;2.75;;
42104;SDS011;70664;51.472;5.712;2023-12-04T02:35:31;4.30;;;3.17;;
42104;SDS011;70664;51.472;5.712;2023-12-04T02:38:01;3.22;;;2.67;;
42104;SDS011;70664;51.472;5.712;2023-12-04T02:40:27;3.60;;;2.83;;
42104;SDS011;70664;51.472;5.712;2023-12-04T02:42:53;4.32;;;3.20;;
42104;SDS011;70664;51.472;5.712;2023-12-04T02:45:19;3.35;;;2.75;;
42104;SDS011;70664;51.472;5.712;2023-12-04T02:47:45;3.97;;;3.08;;
42104;SDS011;70664;51.472;5.712;2023-12-04T02:50:11;3.80;;;2.75;;
42104;SDS011;70664;51.472;5.712;2023-12-04T02:52:36;3.30;;;2.80;;
42104;SDS011;70664;51.472;5.712;2023-12-04T02:55:02;3.50;;;2.88;;
42104;SDS011;70664;51.472;5.712;2023-12-04T02:57:29;3.70;;;3.00;;
42104;SDS011;70664;51.472;5.712;2023-12-04T02:59:54;2.92;;;2.50;;
42104;SDS011;70664;51.472;5.712;2023-12-04T03:02:20;2.90;;;2.50;;
42104;SDS011;70664;51.472;5.712;2023-12-04T03:04:46;3.15;;;2.80;;
42104;SDS011;70664;51.472;5.712;2023-12-04T03:07:12;3.80;;;3.03;;
42104;SDS011;70664;51.472;5.712;2023-12-04T03:09:37;4.60;;;2.92;;
42104;SDS011;70664;51.472;5.712;2023-12-04T03:12:03;2.83;;;2.53;;
42104;SDS011;70664;51.472;5.712;2023-12-04T03:14:30;3.53;;;2.60;;
42104;SDS011;70664;51.472;5.712;2023-12-04T03:16:56;3.70;;;2.70;;
42104;SDS011;70664;51.472;5.712;2023-12-04T03:19:21;3.25;;;2.80;;
42104;SDS011;70664;51.472;5.712;2023-12-04T03:21:47;2.88;;;2.40;;
42104;SDS011;70664;51.472;5.712;2023-12-04T03:24:13;2.95;;;2.60;;
42104;SDS011;70664;51.472;5.712;2023-12-04T03:26:39;3.13;;;2.65;;
42104;SDS011;70664;51.472;5.712;2023-12-04T03:29:05;3.13;;;2.80;;
42104;SDS011;70664;51.472;5.712;2023-12-04T03:31:31;3.63;;;2.90;;
42104;SDS011;70664;51.472;5.712;2023-12-04T03:33:59;3.80;;;3.03;;
42104;SDS011;70664;51.472;5.712;2023-12-04T03:36:24;3.85;;;2.72;;
42104;SDS011;70664;51.472;5.712;2023-12-04T03:38:50;3.35;;;2.90;;
42104;SDS011;70664;51.472;5.712;2023-12-04T03:41:16;3.35;;;2.75;;
42104;SDS011;70664;51.472;5.712;2023-12-04T03:43:42;3.38;;;2.95;;
42104;SDS011;70664;51.472;5.712;2023-12-04T03:46:08;3.40;;;2.90;;
42104;SDS011;70664;51.472;5.712;2023-12-04T03:48:34;3.40;;;2.80;;
42104;SDS011;70664;51.472;5.712;2023-12-04T03:51:00;3.15;;;2.63;;
42104;SDS011;70664;51.472;5.712;2023-12-04T03:53:26;4.55;;;2.75;;
42104;SDS011;70664;51.472;5.712;2023-12-04T03:55:52;3.97;;;3.20;;
42104;SDS011;70664;51.472;5.712;2023-12-04T03:58:18;3.25;;;2.72;;
42104;SDS011;70664;51.472;5.712;2023-12-04T04:00:43;2.88;;;2.58;;
42104;SDS011;70664;51.472;5.712;2023-12-04T04:03:09;3.15;;;2.72;;
42104;SDS011;70664;51.472;5.712;2023-12-04T04:05:35;2.85;;;2.55;;
42104;SDS011;70664;51.472;5.712;2023-12-04T04:08:02;4.22;;;2.65;;
42104;SDS011;70664;51.472;5.712;2023-12-04T04:10:28;3.85;;;2.97;;
42104;SDS011;70664;51.472;5.712;2023-12-04T04:12:54;3.58;;;2.95;;
42104;SDS011;70664;51.472;5.712;2023-12-04T04:15:19;3.00;;;2.60;;
42104;SDS011;70664;51.472;5.712;2023-12-04T04:17:45;4.55;;;2.80;;
42104;SDS011;70664;51.472;5.712;2023-12-04T04:20:11;3.63;;;2.83;;
42104;SDS011;70664;51.472;5.712;2023-12-04T04:22:37;4.47;;;2.80;;
42104;SDS011;70664;51.472;5.712;2023-12-04T04:25:06;3.67;;;2.90;;
42104;SDS011;70664;51.472;5.712;2023-12-04T04:27:32;3.00;;;2.40;;
42104;SDS011;70664;51.472;5.712;2023-12-04T04:29:59;3.17;;;2.60;;
42104;SDS011;70664;51.472;5.712;2023-12-04T04:32:25;3.13;;;2.67;;
42104;SDS011;70664;51.472;5.712;2023-12-04T04:34:51;3.03;;;2.60;;
42104;SDS011;70664;51.472;5.712;2023-12-04T04:37:17;4.75;;;2.90;;
42104;SDS011;70664;51.472;5.712;2023-12-04T04:39:43;3.22;;;2.65;;
42104;SDS011;70664;51.472;5.712;2023-12-04T04:42:09;2.97;;;2.58;;
42104;SDS011;70664;51.472;5.712;2023-12-04T04:44:35;3.45;;;2.78;;
42104;SDS011;70664;51.472;5.712;2023-12-04T04:47:01;4.70;;;2.97;;
42104;SDS011;70664;51.472;5.712;2023-12-04T04:49:27;3.10;;;2.72;;
42104;SDS011;70664;51.472;5.712;2023-12-04T04:51:53;3.10;;;2.80;;
42104;SDS011;70664;51.472;5.712;2023-12-04T04:54:18;3.40;;;2.50;;
42104;SDS011;70664;51.472;5.712;2023-12-04T04:56:44;3.00;;;2.65;;
42104;SDS011;70664;51.472;5.712;2023-12-04T04:59:10;3.67;;;2.67;;
42104;SDS011;70664;51.472;5.712;2023-12-04T05:01:36;3.30;;;2.45;;
42104;SDS011;70664;51.472;5.712;2023-12-04T05:04:02;3.50;;;2.72;;
42104;SDS011;70664;51.472;5.712;2023-12-04T05:06:28;3.22;;;2.72;;
42104;SDS011;70664;51.472;5.712;2023-12-04T05:08:54;4.25;;;2.78;;
42104;SDS011;70664;51.472;5.712;2023-12-04T05:11:21;3.75;;;2.90;;
42104;SDS011;70664;51.472;5.712;2023-12-04T05:13:46;3.38;;;2.80;;
42104;SDS011;70664;51.472;5.712;2023-12-04T05:16:13;3.33;;;2.67;;
42104;SDS011;70664;51.472;5.712;2023-12-04T05:18:39;2.80;;;2.40;;
42104;SDS011;70664;51.472;5.712;2023-12-04T05:21:08;4.13;;;2.83;;
42104;SDS011;70664;51.472;5.712;2023-12-04T05:23:35;3.40;;;2.75;;
42104;SDS011;70664;51.472;5.712;2023-12-04T05:26:07;3.72;;;2.80;;
42104;SDS011;70664;51.472;5.712;2023-12-04T05:28:33;3.17;;;2.85;;
42104;SDS011;70664;51.472;5.712;2023-12-04T05:30:59;3.50;;;2.80;;
42104;SDS011;70664;51.472;5.712;2023-12-04T05:33:25;3.47;;;2.72;;
42104;SDS011;70664;51.472;5.712;2023-12-04T05:35:52;3.10;;;2.60;;
42104;SDS011;70664;51.472;5.712;2023-12-04T05:38:18;3.10;;;2.58;;
42104;SDS011;70664;51.472;5.712;2023-12-04T05:40:44;3.17;;;2.70;;
42104;SDS011;70664;51.472;5.712;2023-12-04T05:43:10;3.17;;;2.45;;
42104;SDS011;70664;51.472;5.712;2023-12-04T05:45:36;3.67;;;2.63;;
42104;SDS011;70664;51.472;5.712;2023-12-04T05:48:02;3.65;;;2.72;;
42104;SDS011;70664;51.472;5.712;2023-12-04T05:50:28;3.03;;;2.60;;
42104;SDS011;70664;51.472;5.712;2023-12-04T05:52:54;4.82;;;2.88;;
42104;SDS011;70664;51.472;5.712;2023-12-04T05:55:19;3.08;;;2.50;;
42104;SDS011;70664;51.472;5.712;2023-12-04T05:57:45;3.03;;;2.60;;
42104;SDS011;70664;51.472;5.712;2023-12-04T06:00:12;2.97;;;2.63;;
42104;SDS011;70664;51.472;5.712;2023-12-04T06:02:42;2.92;;;2.47;;
42104;SDS011;70664;51.472;5.712;2023-12-04T06:05:08;4.30;;;2.33;;
42104;SDS011;70664;51.472;5.712;2023-12-04T06:07:35;3.40;;;2.55;;
42104;SDS011;70664;51.472;5.712;2023-12-04T06:10:01;3.47;;;2.67;;
42104;SDS011;70664;51.472;5.712;2023-12-04T06:12:29;3.70;;;2.80;;
42104;SDS011;70664;51.472;5.712;2023-12-04T06:14:55;3.13;;;2.50;;
42104;SDS011;70664;51.472;5.712;2023-12-04T06:17:23;4.13;;;2.60;;
42104;SDS011;70664;51.472;5.712;2023-12-04T06:19:49;3.25;;;2.50;;
42104;SDS011;70664;51.472;5.712;2023-12-04T06:22:15;3.42;;;2.42;;
42104;SDS011;70664;51.472;5.712;2023-12-04T06:24:43;3.17;;;2.42;;
42104;SDS011;70664;51.472;5.712;2023-12-04T06:27:11;2.85;;;2.50;;
42104;SDS011;70664;51.472;5.712;2023-12-04T06:29:45;3.50;;;2.60;;
42104;SDS011;70664;51.472;5.712;2023-12-04T06:32:12;2.67;;;2.40;;
42104;SDS011;70664;51.472;5.712;2023-12-04T06:34:38;2.70;;;2.40;;
42104;SDS011;70664;51.472;5.712;2023-12-04T06:37:12;3.10;;;2.42;;
42104;SDS011;70664;51.472;5.712;2023-12-04T06:39:39;3.23;;;2.47;;
42104;SDS011;70664;51.472;5.712;2023-12-04T06:42:10;3.03;;;2.67;;
42104;SDS011;70664;51.472;5.712;2023-12-04T06:44:36;2.70;;;2.30;;
42104;SDS011;70664;51.472;5.712;2023-12-04T06:47:03;4.70;;;2.17;;
42104;SDS011;70664;51.472;5.712;2023-12-04T06:49:30;2.50;;;2.20;;
42104;SDS011;70664;51.472;5.712;2023-12-04T06:51:58;3.50;;;2.55;;
42104;SDS011;70664;51.472;5.712;2023-12-04T06:54:24;3.15;;;2.35;;
42104;SDS011;70664;51.472;5.712;2023-12-04T06:56:51;2.90;;;2.38;;
42104;SDS011;70664;51.472;5.712;2023-12-04T06:59:19;3.35;;;2.50;;
42104;SDS011;70664;51.472;5.712;2023-12-04T07:01:46;3.08;;;2.47;;
42104;SDS011;70664;51.472;5.712;2023-12-04T07:04:12;2.90;;;2.40;;
42104;SDS011;70664;51.472;5.712;2023-12-04T07:06:38;2.53;;;2.33;;
42104;SDS011;70664;51.472;5.712;2023-12-04T07:09:05;2.53;;;2.33;;
42104;SDS011;70664;51.472;5.712;2023-12-04T07:11:34;3.95;;;2.35;;
42104;SDS011;70664;51.472;5.712;2023-12-04T07:14:00;3.00;;;2.33;;
42104;SDS011;70664;51.472;5.712;2023-12-04T07:16:26;3.17;;;2.50;;
42104;SDS011;70664;51.472;5.712;2023-12-04T07:18:52;2.92;;;2.30;;
42104;SDS011;70664;51.472;5.712;2023-12-04T07:21:19;2.53;;;2.25;;
42104;SDS011;70664;51.472;5.712;2023-12-04T07:23:45;3.33;;;2.60;;
42104;SDS011;70664;51.472;5.712;2023-12-04T07:26:10;3.70;;;2.55;;
42104;SDS011;70664;51.472;5.712;2023-12-04T07:28:36;2.78;;;2.40;;
42104;SDS011;70664;51.472;5.712;2023-12-04T07:31:02;3.22;;;2.65;;
42104;SDS011;70664;51.472;5.712;2023-12-04T07:33:28;3.03;;;2.38;;
42104;SDS011;70664;51.472;5.712;2023-12-04T07:35:54;2.80;;;2.30;;
42104;SDS011;70664;51.472;5.712;2023-12-04T07:38:20;2.40;;;2.20;;
42104;SDS011;70664;51.472;5.712;2023-12-04T07:40:46;2.63;;;2.22;;
42104;SDS011;70664;51.472;5.712;2023-12-04T07:43:12;2.88;;;2.45;;
42104;SDS011;70664;51.472;5.712;2023-12-04T07:45:39;2.80;;;2.30;;
42104;SDS011;70664;51.472;5.712;2023-12-04T07:48:08;4.18;;;2.28;;
42104;SDS011;70664;51.472;5.712;2023-12-04T07:50:34;2.80;;;2.20;;
42104;SDS011;70664;51.472;5.712;2023-12-04T07:53:02;2.33;;;2.10;;
42104;SDS011;70664;51.472;5.712;2023-12-04T07:55:28;3.05;;;2.55;;
42104;SDS011;70664;51.472;5.712;2023-12-04T07:57:54;2.97;;;2.25;;
42104;SDS011;70664;51.472;5.712;2023-12-04T08:00:21;3.05;;;2.25;;
42104;SDS011;70664;51.472;5.712;2023-12-04T08:02:47;2.83;;;2.28;;
42104;SDS011;70664;51.472;5.712;2023-12-04T08:05:13;3.92;;;2.28;;
42104;SDS011;70664;51.472;5.712;2023-12-04T08:07:39;2.80;;;2.30;;
42104;SDS011;70664;51.472;5.712;2023-12-04T08:10:05;3.38;;;2.58;;
42104;SDS011;70664;51.472;5.712;2023-12-04T08:12:32;2.90;;;2.40;;
42104;SDS011;70664;51.472;5.712;2023-12-04T08:14:58;3.67;;;2.45;;
42104;SDS011;70664;51.472;5.712;2023-12-04T08:17:25;2.90;;;2.33;;
42104;SDS011;70664;51.472;5.712;2023-12-04T08:19:50;2.53;;;2.20;;
42104;SDS011;70664;51.472;5.712;2023-12-04T08:22:16;3.42;;;2.38;;
42104;SDS011;70664;51.472;5.712;2023-12-04T08:24:42;2.80;;;2.40;;
42104;SDS011;70664;51.472;5.712;2023-12-04T08:27:08;2.67;;;2.20;;
42104;SDS011;70664;51.472;5.712;2023-12-04T08:29:34;3.10;;;2.55;;
42104;SDS011;70664;51.472;5.712;2023-12-04T08:31:59;2.28;;;2.03;;
42104;SDS011;70664;51.472;5.712;2023-12-04T08:34:25;3.17;;;2.25;;
42104;SDS011;70664;51.472;5.712;2023-12-04T08:36:51;3.58;;;2.20;;
42104;SDS011;70664;51.472;5.712;2023-12-04T08:39:17;4.13;;;2.30;;
42104;SDS011;70664;51.472;5.712;2023-12-04T08:41:46;2.92;;;2.40;;
42104;SDS011;70664;51.472;5.712;2023-12-04T08:44:13;2.85;;;2.28;;
42104;SDS011;70664;51.472;5.712;2023-12-04T08:46:39;3.33;;;2.40;;
42104;SDS011;70664;51.472;5.712;2023-12-04T08:49:06;3.28;;;2.33;;
42104;SDS011;70664;51.472;5.712;2023-12-04T08:51:31;3.60;;;2.50;;
42104;SDS011;70664;51.472;5.712;2023-12-04T08:53:57;3.97;;;2.22;;
42104;SDS011;70664;51.472;5.712;2023-12-04T08:56:23;3.42;;;2.38;;
42104;SDS011;70664;51.472;5.712;2023-12-04T08:58:49;2.78;;;2.28;;
42104;SDS011;70664;51.472;5.712;2023-12-04T09:01:15;2.70;;;2.10;;
42104;SDS011;70664;51.472;5.712;2023-12-04T09:03:41;3.45;;;2.15;;
42104;SDS011;70664;51.472;5.712;2023-12-04T09:06:07;4.97;;;2.28;;
42104;SDS011;70664;51.472;5.712;2023-12-04T09:08:34;2.70;;;2.03;;
42104;SDS011;70664;51.472;5.712;2023-12-04T09:11:00;3.10;;;2.05;;
42104;SDS011;70664;51.472;5.712;2023-12-04T09:13:26;3.17;;;2.08;;
42104;SDS011;70664;51.472;5.712;2023-12-04T09:15:51;2.70;;;2.10;;
42104;SDS011;70664;51.472;5.712;2023-12-04T09:18:17;2.70;;;2.33;;
42104;SDS011;70664;51.472;5.712;2023-12-04T09:20:43;3.08;;;2.00;;
42104;SDS011;70664;51.472;5.712;2023-12-04T09:23:09;4.10;;;1.98;;
42104;SDS011;70664;51.472;5.712;2023-12-04T09:25:35;2.58;;;1.88;;
42104;SDS011;70664;51.472;5.712;2023-12-04T09:28:01;1.85;;;1.65;;
42104;SDS011;70664;51.472;5.712;2023-12-04T09:30:27;3.28;;;2.10;;
42104;SDS011;70664;51.472;5.712;2023-12-04T09:32:53;4.97;;;1.95;;
42104;SDS011;70664;51.472;5.712;2023-12-04T09:35:19;2.83;;;2.00;;
42104;SDS011;70664;51.472;5.712;2023-12-04T09:37:45;4.18;;;2.15;;
42104;SDS011;70664;51.472;5.712;2023-12-04T09:40:11;2.72;;;2.00;;
42104;SDS011;70664;51.472;5.712;2023-12-04T09:42:37;4.03;;;1.90;;
42104;SDS011;70664;51.472;5.712;2023-12-04T09:45:05;4.22;;;2.03;;
42104;SDS011;70664;51.472;5.712;2023-12-04T09:47:33;3.05;;;1.70;;
42104;SDS011;70664;51.472;5.712;2023-12-04T09:49:59;2.95;;;1.75;;
42104;SDS011;70664;51.472;5.712;2023-12-04T09:52:28;2.97;;;1.90;;
42104;SDS011;70664;51.472;5.712;2023-12-04T09:54:55;3.45;;;2.20;;
42104;SDS011;70664;51.472;5.712;2023-12-04T09:57:21;3.33;;;1.90;;
42104;SDS011;70664;51.472;5.712;2023-12-04T09:59:49;3.05;;;2.30;;
42104;SDS011;70664;51.472;5.712;2023-12-04T10:02:17;3.97;;;2.13;;
42104;SDS011;70664;51.472;5.712;2023-12-04T10:04:44;4.88;;;2.22;;
42104;SDS011;70664;51.472;5.712;2023-12-04T10:07:11;7.55;;;2.40;;
42104;SDS011;70664;51.472;5.712;2023-12-04T10:09:37;4.25;;;1.90;;
42104;SDS011;70664;51.472;5.712;2023-12-04T10:12:03;4.25;;;2.10;;
42104;SDS011;70664;51.472;5.712;2023-12-04T10:14:31;2.67;;;1.98;;
42104;SDS011;70664;51.472;5.712;2023-12-04T10:16:56;3.85;;;1.95;;
42104;SDS011;70664;51.472;5.712;2023-12-04T10:19:23;4.18;;;2.00;;
42104;SDS011;70664;51.472;5.712;2023-12-04T10:21:52;4.57;;;1.90;;
42104;SDS011;70664;51.472;5.712;2023-12-04T10:24:34;5.20;;;2.05;;
42104;SDS011;70664;51.472;5.712;2023-12-04T10:29:30;3.55;;;2.10;;
42104;SDS011;70664;51.472;5.712;2023-12-04T10:32:19;4.03;;;2.20;;
42104;SDS011;70664;51.472;5.712;2023-12-04T10:34:48;5.97;;;2.10;;
42104;SDS011;70664;51.472;5.712;2023-12-04T10:37:14;6.43;;;2.22;;
42104;SDS011;70664;51.472;5.712;2023-12-04T10:39:48;2.45;;;2.00;;
42104;SDS011;70664;51.472;5.712;2023-12-04T10:42:36;5.05;;;2.20;;
42104;SDS011;70664;51.472;5.712;2023-12-04T10:45:01;3.30;;;2.28;;
42104;SDS011;70664;51.472;5.712;2023-12-04T10:47:31;4.22;;;1.98;;
42104;SDS011;70664;51.472;5.712;2023-12-04T10:49:59;3.38;;;2.20;;
42104;SDS011;70664;51.472;5.712;2023-12-04T10:52:27;2.22;;;1.85;;
42104;SDS011;70664;51.472;5.712;2023-12-04T10:54:54;2.88;;;2.10;;
42104;SDS011;70664;51.472;5.712;2023-12-04T10:57:26;2.95;;;2.05;;
42104;SDS011;70664;51.472;5.712;2023-12-04T11:00:00;4.72;;;1.85;;
42104;SDS011;70664;51.472;5.712;2023-12-04T11:02:32;3.05;;;2.00;;
42104;SDS011;70664;51.472;5.712;2023-12-04T11:05:08;3.72;;;2.20;;
42104;SDS011;70664;51.472;5.712;2023-12-04T11:08:19;4.13;;;1.88;;
42104;SDS011;70664;51.472;5.712;2023-12-04T11:13:15;5.35;;;2.22;;
42104;SDS011;70664;51.472;5.712;2023-12-04T11:15:48;2.75;;;2.10;;
42104;SDS011;70664;51.472;5.712;2023-12-04T11:18:15;2.42;;;1.80;;
42104;SDS011;70664;51.472;5.712;2023-12-04T11:20:48;3.38;;;1.90;;
42104;SDS011;70664;51.472;5.712;2023-12-04T11:23:22;3.25;;;1.88;;
42104;SDS011;70664;51.472;5.712;2023-12-04T11:25:48;2.83;;;2.28;;
42104;SDS011;70664;51.472;5.712;2023-12-04T11:28:15;3.20;;;2.00;;
42104;SDS011;70664;51.472;5.712;2023-12-04T11:30:41;3.70;;;2.08;;
42104;SDS011;70664;51.472;5.712;2023-12-04T11:33:09;2.65;;;2.28;;
42104;SDS011;70664;51.472;5.712;2023-12-04T11:35:36;2.70;;;2.10;;
42104;SDS011;70664;51.472;5.712;2023-12-04T11:38:07;3.65;;;1.85;;
42104;SDS011;70664;51.472;5.712;2023-12-04T11:40:34;2.58;;;1.92;;
42104;SDS011;70664;51.472;5.712;2023-12-04T11:43:04;2.42;;;2.03;;
42104;SDS011;70664;51.472;5.712;2023-12-04T11:45:52;2.90;;;2.03;;
42104;SDS011;70664;51.472;5.712;2023-12-04T11:48:31;2.50;;;1.90;;
42104;SDS011;70664;51.472;5.712;2023-12-04T11:50:57;3.67;;;2.05;;
42104;SDS011;70664;51.472;5.712;2023-12-04T11:53:25;3.10;;;2.15;;
42104;SDS011;70664;51.472;5.712;2023-12-04T11:55:52;3.55;;;1.90;;
42104;SDS011;70664;51.472;5.712;2023-12-04T11:58:24;5.03;;;1.90;;
42104;SDS011;70664;51.472;5.712;2023-12-04T12:00:51;2.70;;;1.80;;
42104;SDS011;70664;51.472;5.712;2023-12-04T12:03:17;4.22;;;2.00;;
42104;SDS011;70664;51.472;5.712;2023-12-04T12:05:45;2.08;;;1.65;;
42104;SDS011;70664;51.472;5.712;2023-12-04T12:08:15;7.63;;;1.83;;
42104;SDS011;70664;51.472;5.712;2023-12-04T12:10:42;2.40;;;1.80;;
42104;SDS011;70664;51.472;5.712;2023-12-04T12:13:08;3.13;;;2.13;;
42104;SDS011;70664;51.472;5.712;2023-12-04T12:15:36;3.13;;;1.80;;
42104;SDS011;70664;51.472;5.712;2023-12-04T12:18:02;2.25;;;1.70;;
42104;SDS011;70664;51.472;5.712;2023-12-04T12:20:30;2.88;;;1.80;;
42104;SDS011;70664;51.472;5.712;2023-12-04T12:22:56;2.35;;;1.80;;
42104;SDS011;70664;51.472;5.712;2023-12-04T12:25:22;4.85;;;1.85;;
42104;SDS011;70664;51.472;5.712;2023-12-04T12:27:50;2.60;;;2.03;;
42104;SDS011;70664;51.472;5.712;2023-12-04T12:30:16;3.28;;;1.90;;
42104;SDS011;70664;51.472;5.712;2023-12-04T12:32:41;3.95;;;2.10;;
42104;SDS011;70664;51.472;5.712;2023-12-04T12:35:07;3.33;;;1.80;;
42104;SDS011;70664;51.472;5.712;2023-12-04T12:37:34;3.97;;;2.00;;
42104;SDS011;70664;51.472;5.712;2023-12-04T12:40:00;3.05;;;1.90;;
42104;SDS011;70664;51.472;5.712;2023-12-04T12:42:29;2.42;;;1.70;;
42104;SDS011;70664;51.472;5.712;2023-12-04T12:44:55;3.45;;;1.80;;
42104;SDS011;70664;51.472;5.712;2023-12-04T12:47:24;2.22;;;1.73;;
42104;SDS011;70664;51.472;5.712;2023-12-04T12:49:50;2.67;;;1.70;;
42104;SDS011;70664;51.472;5.712;2023-12-04T12:52:17;3.72;;;2.00;;
42104;SDS011;70664;51.472;5.712;2023-12-04T12:54:45;2.45;;;2.00;;
42104;SDS011;70664;51.472;5.712;2023-12-04T12:57:11;4.00;;;2.08;;
42104;SDS011;70664;51.472;5.712;2023-12-04T12:59:38;3.70;;;1.90;;
42104;SDS011;70664;51.472;5.712;2023-12-04T13:02:05;3.15;;;2.22;;
42104;SDS011;70664;51.472;5.712;2023-12-04T13:04:40;3.75;;;1.70;;
42104;SDS011;70664;51.472;5.712;2023-12-04T13:07:07;3.80;;;1.90;;
42104;SDS011;70664;51.472;5.712;2023-12-04T13:09:34;2.83;;;2.10;;
42104;SDS011;70664;51.472;5.712;2023-12-04T13:12:01;4.47;;;1.77;;
42104;SDS011;70664;51.472;5.712;2023-12-04T13:14:31;2.88;;;1.92;;
42104;SDS011;70664;51.472;5.712;2023-12-04T13:16:59;4.20;;;2.28;;
42104;SDS011;70664;51.472;5.712;2023-12-04T13:19:26;2.60;;;1.80;;
42104;SDS011;70664;51.472;5.712;2023-12-04T13:21:52;2.92;;;2.10;;
42104;SDS011;70664;51.472;5.712;2023-12-04T13:24:18;5.18;;;1.65;;
42104;SDS011;70664;51.472;5.712;2023-12-04T13:26:44;2.75;;;1.85;;
42104;SDS011;70664;51.472;5.712;2023-12-04T13:29:10;2.80;;;1.83;;
42104;SDS011;70664;51.472;5.712;2023-12-04T13:31:40;2.13;;;1.75;;
42104;SDS011;70664;51.472;5.712;2023-12-04T13:34:06;4.75;;;1.90;;
42104;SDS011;70664;51.472;5.712;2023-12-04T13:36:35;2.38;;;1.90;;
42104;SDS011;70664;51.472;5.712;2023-12-04T13:39:02;2.33;;;1.70;;
42104;SDS011;70664;51.472;5.712;2023-12-04T13:41:29;3.42;;;1.80;;
42104;SDS011;70664;51.472;5.712;2023-12-04T13:44:15;2.60;;;1.70;;
42104;SDS011;70664;51.472;5.712;2023-12-04T13:46:40;3.28;;;1.90;;
42104;SDS011;70664;51.472;5.712;2023-12-04T13:49:06;3.17;;;2.03;;
42104;SDS011;70664;51.472;5.712;2023-12-04T13:51:32;3.47;;;1.88;;
42104;SDS011;70664;51.472;5.712;2023-12-04T13:53:59;3.60;;;2.13;;
42104;SDS011;70664;51.472;5.712;2023-12-04T13:56:40;2.47;;;1.80;;
42104;SDS011;70664;51.472;5.712;2023-12-04T13:59:19;2.50;;;1.70;;
42104;SDS011;70664;51.472;5.712;2023-12-04T14:01:46;7.20;;;1.80;;
42104;SDS011;70664;51.472;5.712;2023-12-04T14:04:17;2.13;;;1.60;;
42104;SDS011;70664;51.472;5.712;2023-12-04T14:06:44;2.58;;;1.80;;
42104;SDS011;70664;51.472;5.712;2023-12-04T14:09:10;2.80;;;1.75;;
42104;SDS011;70664;51.472;5.712;2023-12-04T14:11:39;1.85;;;1.60;;
42104;SDS011;70664;51.472;5.712;2023-12-04T14:14:09;2.15;;;1.63;;
42104;SDS011;70664;51.472;5.712;2023-12-04T14:16:34;2.08;;;1.50;;
42104;SDS011;70664;51.472;5.712;2023-12-04T14:19:00;3.03;;;1.65;;
42104;SDS011;70664;51.472;5.712;2023-12-04T14:21:27;2.65;;;1.73;;
42104;SDS011;70664;51.472;5.712;2023-12-04T14:23:53;2.35;;;1.73;;
42104;SDS011;70664;51.472;5.712;2023-12-04T14:26:19;3.17;;;1.50;;
42104;SDS011;70664;51.472;5.712;2023-12-04T14:28:45;2.10;;;1.40;;
42104;SDS011;70664;51.472;5.712;2023-12-04T14:31:11;3.10;;;1.70;;
42104;SDS011;70664;51.472;5.712;2023-12-04T14:33:37;3.58;;;1.55;;
42104;SDS011;70664;51.472;5.712;2023-12-04T14:36:03;2.92;;;1.60;;
42104;SDS011;70664;51.472;5.712;2023-12-04T14:38:30;2.20;;;1.50;;
42104;SDS011;70664;51.472;5.712;2023-12-04T14:40:55;4.32;;;1.83;;
42104;SDS011;70664;51.472;5.712;2023-12-04T14:43:21;2.17;;;1.83;;
42104;SDS011;70664;51.472;5.712;2023-12-04T14:45:47;2.03;;;1.60;;
42104;SDS011;70664;51.472;5.712;2023-12-04T14:48:13;2.97;;;1.90;;
42104;SDS011;70664;51.472;5.712;2023-12-04T14:50:39;2.17;;;1.70;;
42104;SDS011;70664;51.472;5.712;2023-12-04T14:53:05;1.83;;;1.60;;